CheckWX is a tool to help pilots better visualize weather data.  It is not intended as a substitute for an official pre-flight weather briefing.

07:53:02 UTC

CYQK TAF
Kenora Airport
Kenora, Canada
TAF CYQK 200740Z 2008/2020 08005KT P6SM FEW050 FM201900 10012KT P6SM BKN070 RMK NXT FCST BY 201400Z

Jun-20@
08:00 UTC

Jun-20 @ 08:00 UTC

Jun-20@
19:00 UTC

Jun-20 @ 19:00 UTC

TAF CYQK 200740Z 2008/2020 08005KT P6SM FEW050
Wind
  • 080° at 5 KTS
Cloud Levels
  • Few at 5,000' AGL

Jun-20@
19:00 UTC

Jun-20 @ 19:00 UTC

Jun-20@
20:00 UTC

Jun-20 @ 20:00 UTC

FM201900 10012KT P6SM BKN070 RMK NXT FCST BY 201400Z

From

From Standard forecast or significant change

Wind
  • 100° at 12 KTS
Cloud Levels
  • Broken at 7,000' AGL